sensor_id;sensor_type;location;lat;lon;timestamp;pressure;altitude;pressure_sealevel;temperature;humidity
16690;BME280;8458;52.220;9.884;2022-08-25T00:01:53;101130.00;;;22.65;55.62
16690;BME280;8458;52.220;9.884;2022-08-25T00:04:20;101127.66;;;22.67;55.93
16690;BME280;8458;52.220;9.884;2022-08-25T00:06:47;101126.66;;;22.63;56.16
16690;BME280;8458;52.220;9.884;2022-08-25T00:09:17;101126.66;;;22.63;56.49
16690;BME280;8458;52.220;9.884;2022-08-25T00:11:45;101129.69;;;22.58;56.57
16690;BME280;8458;52.220;9.884;2022-08-25T00:14:16;101133.16;;;22.55;56.82
16690;BME280;8458;52.220;9.884;2022-08-25T00:16:43;101132.69;;;22.53;56.74
16690;BME280;8458;52.220;9.884;2022-08-25T00:19:14;101131.84;;;22.52;56.92
16690;BME280;8458;52.220;9.884;2022-08-25T00:21:41;101126.53;;;22.51;57.11
16690;BME280;8458;52.220;9.884;2022-08-25T00:24:09;101130.34;;;22.55;57.06
16690;BME280;8458;52.220;9.884;2022-08-25T00:26:38;101129.69;;;22.58;57.04
16690;BME280;8458;52.220;9.884;2022-08-25T00:29:04;101133.50;;;22.53;57.42
16690;BME280;8458;52.220;9.884;2022-08-25T00:31:31;101120.72;;;22.56;57.56
16690;BME280;8458;52.220;9.884;2022-08-25T00:33:58;101121.88;;;22.55;57.35
16690;BME280;8458;52.220;9.884;2022-08-25T00:36:26;101131.03;;;22.52;57.63
16690;BME280;8458;52.220;9.884;2022-08-25T00:38:54;101126.56;;;22.42;57.40
16690;BME280;8458;52.220;9.884;2022-08-25T00:41:23;101118.09;;;22.33;57.58
16690;BME280;8458;52.220;9.884;2022-08-25T00:43:52;101120.56;;;22.26;57.88
16690;BME280;8458;52.220;9.884;2022-08-25T00:46:23;101126.56;;;22.25;58.06
16690;BME280;8458;52.220;9.884;2022-08-25T00:48:55;101118.75;;;22.13;58.29
16690;BME280;8458;52.220;9.884;2022-08-25T00:51:29;101124.06;;;22.06;58.30
16690;BME280;8458;52.220;9.884;2022-08-25T00:53:58;101120.59;;;22.00;58.59
16690;BME280;8458;52.220;9.884;2022-08-25T00:56:26;101117.44;;;22.01;58.71
16690;BME280;8458;52.220;9.884;2022-08-25T00:58:53;101118.44;;;21.97;58.70
16690;BME280;8458;52.220;9.884;2022-08-25T01:01:19;101122.75;;;21.94;58.98
16690;BME280;8458;52.220;9.884;2022-08-25T01:03:46;101123.22;;;21.96;59.05
16690;BME280;8458;52.220;9.884;2022-08-25T01:06:12;101118.75;;;21.95;59.30
16690;BME280;8458;52.220;9.884;2022-08-25T01:08:41;101118.75;;;21.95;59.48
16690;BME280;8458;52.220;9.884;2022-08-25T01:11:09;101122.75;;;21.94;59.59
16690;BME280;8458;52.220;9.884;2022-08-25T01:13:38;101117.91;;;21.77;60.12
16690;BME280;8458;52.220;9.884;2022-08-25T01:16:06;101113.59;;;21.71;60.20
16690;BME280;8458;52.220;9.884;2022-08-25T01:18:44;101121.38;;;21.65;60.63
16690;BME280;8458;52.220;9.884;2022-08-25T01:21:12;101118.22;;;21.58;60.82
16690;BME280;8458;52.220;9.884;2022-08-25T01:23:39;101117.00;;;21.42;61.20
16690;BME280;8458;52.220;9.884;2022-08-25T01:26:10;101120.91;;;21.23;61.83
16690;BME280;8458;52.220;9.884;2022-08-25T01:28:38;101124.03;;;21.13;62.15
16690;BME280;8458;52.220;9.884;2022-08-25T01:31:26;101116.41;;;21.13;62.20
16690;BME280;8458;52.220;9.884;2022-08-25T01:33:53;101126.50;;;21.06;62.75
16690;BME280;8458;52.220;9.884;2022-08-25T01:36:22;101120.22;;;21.09;62.88
16690;BME280;8458;52.220;9.884;2022-08-25T01:38:49;101117.91;;;21.11;63.02
16690;BME280;8458;52.220;9.884;2022-08-25T01:41:21;101120.72;;;21.11;62.97
16690;BME280;8458;52.220;9.884;2022-08-25T01:43:51;101118.91;;;21.15;62.66
16690;BME280;8458;52.220;9.884;2022-08-25T01:46:18;101112.56;;;21.01;62.95
16690;BME280;8458;52.220;9.884;2022-08-25T01:48:44;101116.00;;;20.89;63.57
16690;BME280;8458;52.220;9.884;2022-08-25T01:51:13;101126.88;;;20.82;63.71
16690;BME280;8458;52.220;9.884;2022-08-25T01:53:41;101121.06;;;20.78;64.30
16690;BME280;8458;52.220;9.884;2022-08-25T01:56:09;101124.53;;;20.75;64.38
16690;BME280;8458;52.220;9.884;2022-08-25T01:58:38;101126.31;;;20.71;64.61
16690;BME280;8458;52.220;9.884;2022-08-25T02:01:08;101113.75;;;20.68;64.75
16690;BME280;8458;52.220;9.884;2022-08-25T02:03:36;101109.41;;;20.71;64.90
16690;BME280;8458;52.220;9.884;2022-08-25T02:06:04;101110.78;;;20.73;64.76
16690;BME280;8458;52.220;9.884;2022-08-25T02:08:31;101112.13;;;20.76;64.76
16690;BME280;8458;52.220;9.884;2022-08-25T02:10:59;101118.09;;;20.74;64.53
16690;BME280;8458;52.220;9.884;2022-08-25T02:13:26;101115.97;;;20.57;65.13
16690;BME280;8458;52.220;9.884;2022-08-25T02:15:54;101115.75;;;20.54;64.85
16690;BME280;8458;52.220;9.884;2022-08-25T02:18:21;101118.34;;;20.41;65.25
16690;BME280;8458;52.220;9.884;2022-08-25T02:20:48;101111.00;;;20.32;65.98
16690;BME280;8458;52.220;9.884;2022-08-25T02:23:14;101118.78;;;20.35;65.96
16690;BME280;8458;52.220;9.884;2022-08-25T02:25:41;101119.19;;;20.42;65.70
16690;BME280;8458;52.220;9.884;2022-08-25T02:28:09;101117.69;;;20.45;66.02
16690;BME280;8458;52.220;9.884;2022-08-25T02:30:37;101118.53;;;20.45;65.90
16690;BME280;8458;52.220;9.884;2022-08-25T02:33:04;101117.13;;;20.56;65.72
16690;BME280;8458;52.220;9.884;2022-08-25T02:35:30;101113.66;;;20.59;65.83
16690;BME280;8458;52.220;9.884;2022-08-25T02:37:57;101116.97;;;20.62;65.90
16690;BME280;8458;52.220;9.884;2022-08-25T02:40:24;101117.19;;;20.65;65.75
16690;BME280;8458;52.220;9.884;2022-08-25T02:42:50;101112.25;;;20.71;65.67
16690;BME280;8458;52.220;9.884;2022-08-25T02:45:18;101112.44;;;20.74;65.38
16690;BME280;8458;52.220;9.884;2022-08-25T02:47:45;101111.41;;;20.70;65.71
16690;BME280;8458;52.220;9.884;2022-08-25T02:50:12;101101.72;;;20.63;66.08
16690;BME280;8458;52.220;9.884;2022-08-25T02:52:39;101108.34;;;20.58;66.24
16690;BME280;8458;52.220;9.884;2022-08-25T02:55:09;101101.81;;;20.49;66.34
16690;BME280;8458;52.220;9.884;2022-08-25T02:57:37;101102.94;;;20.39;66.73
16690;BME280;8458;52.220;9.884;2022-08-25T03:00:05;101101.25;;;20.38;66.79
16690;BME280;8458;52.220;9.884;2022-08-25T03:02:33;101108.16;;;20.32;66.96
16690;BME280;8458;52.220;9.884;2022-08-25T03:05:00;101100.88;;;20.31;67.15
16690;BME280;8458;52.220;9.884;2022-08-25T03:07:27;101102.53;;;20.32;66.79
16690;BME280;8458;52.220;9.884;2022-08-25T03:09:53;101100.22;;;20.34;65.98
16690;BME280;8458;52.220;9.884;2022-08-25T03:12:20;101097.94;;;20.36;65.89
16690;BME280;8458;52.220;9.884;2022-08-25T03:14:47;101096.78;;;20.37;66.02
16690;BME280;8458;52.220;9.884;2022-08-25T03:17:13;101110.03;;;20.36;66.03
16690;BME280;8458;52.220;9.884;2022-08-25T03:19:41;101102.28;;;20.42;66.14
16690;BME280;8458;52.220;9.884;2022-08-25T03:22:07;101094.16;;;20.40;66.05
16690;BME280;8458;52.220;9.884;2022-08-25T03:24:34;101097.63;;;20.37;66.14
16690;BME280;8458;52.220;9.884;2022-08-25T03:27:01;101098.44;;;20.38;66.23
16690;BME280;8458;52.220;9.884;2022-08-25T03:29:28;101092.66;;;20.43;66.45
16690;BME280;8458;52.220;9.884;2022-08-25T03:31:56;101092.66;;;20.43;66.44
16690;BME280;8458;52.220;9.884;2022-08-25T03:34:24;101095.63;;;20.38;66.63
16690;BME280;8458;52.220;9.884;2022-08-25T03:36:54;101092.81;;;20.38;66.15
16690;BME280;8458;52.220;9.884;2022-08-25T03:39:23;101102.53;;;20.32;66.00
16690;BME280;8458;52.220;9.884;2022-08-25T03:41:50;101100.88;;;20.31;65.81
16690;BME280;8458;52.220;9.884;2022-08-25T03:44:18;101105.69;;;20.30;65.80
16690;BME280;8458;52.220;9.884;2022-08-25T03:46:47;101102.16;;;20.24;65.99
16690;BME280;8458;52.220;9.884;2022-08-25T03:49:19;101101.97;;;20.21;65.99
16690;BME280;8458;52.220;9.884;2022-08-25T03:51:49;101093.97;;;20.14;66.53
16690;BME280;8458;52.220;9.884;2022-08-25T03:54:20;101101.16;;;20.20;66.69
16690;BME280;8458;52.220;9.884;2022-08-25T03:56:47;101093.84;;;20.19;67.15
16690;BME280;8458;52.220;9.884;2022-08-25T03:59:13;101097.44;;;20.11;67.70
16690;BME280;8458;52.220;9.884;2022-08-25T04:01:42;101102.22;;;20.11;67.65
16690;BME280;8458;52.220;9.884;2022-08-25T04:04:11;101102.03;;;20.07;67.64
16690;BME280;8458;52.220;9.884;2022-08-25T04:06:38;101101.72;;;20.09;67.83
16690;BME280;8458;52.220;9.884;2022-08-25T04:09:06;101105.66;;;20.08;68.06
16690;BME280;8458;52.220;9.884;2022-08-25T04:11:35;101112.66;;;20.10;67.81
16690;BME280;8458;52.220;9.884;2022-08-25T04:14:03;101118.91;;;20.07;67.80
16690;BME280;8458;52.220;9.884;2022-08-25T04:16:32;101112.25;;;20.03;68.07
16690;BME280;8458;52.220;9.884;2022-08-25T04:19:01;101120.69;;;20.03;68.03
16690;BME280;8458;52.220;9.884;2022-08-25T04:21:28;101123.31;;;19.99;68.31
16690;BME280;8458;52.220;9.884;2022-08-25T04:23:55;101115.19;;;19.98;68.29
16690;BME280;8458;52.220;9.884;2022-08-25T04:26:24;101119.78;;;19.94;68.43
16690;BME280;8458;52.220;9.884;2022-08-25T04:28:53;101119.16;;;19.97;68.51
16690;BME280;8458;52.220;9.884;2022-08-25T04:31:20;101107.53;;;19.90;69.01
16690;BME280;8458;52.220;9.884;2022-08-25T04:33:47;101110.44;;;19.84;69.47
16690;BME280;8458;52.220;9.884;2022-08-25T04:36:16;101107.25;;;19.77;69.31
16690;BME280;8458;52.220;9.884;2022-08-25T04:38:44;101114.88;;;19.63;69.45
16690;BME280;8458;52.220;9.884;2022-08-25T04:41:12;101108.22;;;19.59;69.27
16690;BME280;8458;52.220;9.884;2022-08-25T04:43:41;101104.47;;;19.49;69.93
16690;BME280;8458;52.220;9.884;2022-08-25T04:46:11;101097.50;;;19.47;70.33
16690;BME280;8458;52.220;9.884;2022-08-25T04:48:39;101096.34;;;19.48;70.43
16690;BME280;8458;52.220;9.884;2022-08-25T04:51:07;101090.22;;;19.46;70.71
16690;BME280;8458;52.220;9.884;2022-08-25T04:53:34;101089.06;;;19.47;71.40
16690;BME280;8458;52.220;9.884;2022-08-25T04:56:04;101092.19;;;19.45;71.79
16690;BME280;8458;52.220;9.884;2022-08-25T04:58:31;101095.00;;;19.45;71.85
16690;BME280;8458;52.220;9.884;2022-08-25T05:01:00;101093.25;;;19.35;72.35
16690;BME280;8458;52.220;9.884;2022-08-25T05:03:29;101095.75;;;19.23;73.23
16690;BME280;8458;52.220;9.884;2022-08-25T05:05:56;101104.31;;;19.18;74.09
16690;BME280;8458;52.220;9.884;2022-08-25T05:08:23;101097.84;;;19.17;74.61
16690;BME280;8458;52.220;9.884;2022-08-25T05:10:49;101106.81;;;19.20;75.27
16690;BME280;8458;52.220;9.884;2022-08-25T05:13:18;101102.63;;;19.31;75.44
16690;BME280;8458;52.220;9.884;2022-08-25T05:15:50;101113.03;;;19.30;75.56
16690;BME280;8458;52.220;9.884;2022-08-25T05:18:18;101105.94;;;19.33;75.50
16690;BME280;8458;52.220;9.884;2022-08-25T05:20:46;101111.56;;;19.33;75.69
16690;BME280;8458;52.220;9.884;2022-08-25T05:23:13;101116.16;;;19.29;76.12
16690;BME280;8458;52.220;9.884;2022-08-25T05:25:39;101112.19;;;19.30;76.65
16690;BME280;8458;52.220;9.884;2022-08-25T05:28:07;101109.06;;;19.31;76.86
16690;BME280;8458;52.220;9.884;2022-08-25T05:30:36;101112.41;;;19.33;76.75
16690;BME280;8458;52.220;9.884;2022-08-25T05:33:03;101115.44;;;19.37;77.59
16690;BME280;8458;52.220;9.884;2022-08-25T05:35:30;101108.22;;;19.45;77.46
16690;BME280;8458;52.220;9.884;2022-08-25T05:37:57;101102.81;;;19.48;77.98
16690;BME280;8458;52.220;9.884;2022-08-25T05:40:24;101099.66;;;19.50;78.43
16690;BME280;8458;52.220;9.884;2022-08-25T05:42:50;101091.56;;;19.48;79.10
16690;BME280;8458;52.220;9.884;2022-08-25T05:45:18;101101.34;;;19.51;79.76
16690;BME280;8458;52.220;9.884;2022-08-25T05:47:44;101099.34;;;19.51;80.52
16690;BME280;8458;52.220;9.884;2022-08-25T05:50:11;101104.25;;;19.60;80.39
16690;BME280;8458;52.220;9.884;2022-08-25T05:52:37;101096.50;;;19.65;80.39
16690;BME280;8458;52.220;9.884;2022-08-25T05:55:07;101096.19;;;19.67;80.28
16690;BME280;8458;52.220;9.884;2022-08-25T05:57:34;101098.06;;;19.71;80.61
16690;BME280;8458;52.220;9.884;2022-08-25T06:00:01;101095.47;;;19.75;81.23
16690;BME280;8458;52.220;9.884;2022-08-25T06:02:27;101084.44;;;19.79;81.44
16690;BME280;8458;52.220;9.884;2022-08-25T06:05:15;101088.56;;;19.81;81.25
16690;BME280;8458;52.220;9.884;2022-08-25T06:07:42;101090.25;;;19.82;81.65
16690;BME280;8458;52.220;9.884;2022-08-25T06:10:12;101096.38;;;19.84;81.85
16690;BME280;8458;52.220;9.884;2022-08-25T06:12:41;101093.13;;;19.91;81.90
16690;BME280;8458;52.220;9.884;2022-08-25T06:15:10;101092.69;;;19.98;82.02
16690;BME280;8458;52.220;9.884;2022-08-25T06:17:37;101089.75;;;20.03;82.39
16690;BME280;8458;52.220;9.884;2022-08-25T06:20:06;101087.31;;;20.10;82.25
16690;BME280;8458;52.220;9.884;2022-08-25T06:22:33;101078.94;;;20.19;82.68
16690;BME280;8458;52.220;9.884;2022-08-25T06:24:59;101082.34;;;20.30;82.76
16690;BME280;8458;52.220;9.884;2022-08-25T06:27:28;101084.38;;;20.38;82.88
16690;BME280;8458;52.220;9.884;2022-08-25T06:29:54;101081.28;;;20.48;82.44
16690;BME280;8458;52.220;9.884;2022-08-25T06:32:21;101085.09;;;20.52;82.14
16690;BME280;8458;52.220;9.884;2022-08-25T06:34:47;101089.44;;;20.58;81.90
16690;BME280;8458;52.220;9.884;2022-08-25T06:37:15;101083.91;;;20.67;81.93
16690;BME280;8458;52.220;9.884;2022-08-25T06:39:41;101091.75;;;20.79;81.44
16690;BME280;8458;52.220;9.884;2022-08-25T06:42:08;101084.50;;;20.87;81.55
16690;BME280;8458;52.220;9.884;2022-08-25T06:44:36;101080.22;;;20.98;81.54
16690;BME280;8458;52.220;9.884;2022-08-25T06:47:02;101074.63;;;21.07;79.97
16690;BME280;8458;52.220;9.884;2022-08-25T06:49:29;101073.81;;;21.15;80.44
16690;BME280;8458;52.220;9.884;2022-08-25T06:51:56;101078.66;;;21.32;80.29
16690;BME280;8458;52.220;9.884;2022-08-25T06:54:23;101063.91;;;21.44;80.10
16690;BME280;8458;52.220;9.884;2022-08-25T06:56:49;101065.28;;;21.55;78.84
16690;BME280;8458;52.220;9.884;2022-08-25T06:59:16;101060.13;;;21.57;77.80
16690;BME280;8458;52.220;9.884;2022-08-25T07:01:44;101060.97;;;21.66;78.76
16690;BME280;8458;52.220;9.884;2022-08-25T07:04:11;101058.81;;;21.81;77.99
16690;BME280;8458;52.220;9.884;2022-08-25T07:06:37;101067.75;;;21.92;77.72
16690;BME280;8458;52.220;9.884;2022-08-25T07:09:05;101059.97;;;21.97;77.44
16690;BME280;8458;52.220;9.884;2022-08-25T07:11:32;101063.94;;;22.14;78.08
16690;BME280;8458;52.220;9.884;2022-08-25T07:14:00;101054.94;;;22.29;76.32
16690;BME280;8458;52.220;9.884;2022-08-25T07:16:27;101059.09;;;22.41;77.28
16690;BME280;8458;52.220;9.884;2022-08-25T07:18:57;101062.53;;;22.55;75.91
16690;BME280;8458;52.220;9.884;2022-08-25T07:21:25;101071.13;;;22.67;76.78
16690;BME280;8458;52.220;9.884;2022-08-25T07:23:51;101064.44;;;22.81;75.23
16690;BME280;8458;52.220;9.884;2022-08-25T07:26:20;101058.72;;;22.89;75.69
16690;BME280;8458;52.220;9.884;2022-08-25T07:28:47;101059.03;;;22.97;74.67
16690;BME280;8458;52.220;9.884;2022-08-25T07:31:14;101060.16;;;23.04;75.75
16690;BME280;8458;52.220;9.884;2022-08-25T07:33:41;101059.31;;;23.13;75.79
16690;BME280;8458;52.220;9.884;2022-08-25T07:36:29;101058.94;;;23.23;74.64
16690;BME280;8458;52.220;9.884;2022-08-25T07:38:56;101063.00;;;23.34;75.62
16690;BME280;8458;52.220;9.884;2022-08-25T07:41:23;101060.25;;;23.47;75.90
16690;BME280;8458;52.220;9.884;2022-08-25T07:43:50;101073.31;;;23.60;75.49
16690;BME280;8458;52.220;9.884;2022-08-25T07:46:17;101073.88;;;23.74;75.35
16690;BME280;8458;52.220;9.884;2022-08-25T07:48:43;101071.25;;;23.90;74.50
16690;BME280;8458;52.220;9.884;2022-08-25T07:51:12;101076.50;;;24.01;73.69
16690;BME280;8458;52.220;9.884;2022-08-25T07:53:41;101075.94;;;24.07;74.24
16690;BME280;8458;52.220;9.884;2022-08-25T07:56:09;101074.00;;;24.20;73.84
16690;BME280;8458;52.220;9.884;2022-08-25T07:58:36;101076.88;;;24.32;73.80
16690;BME280;8458;52.220;9.884;2022-08-25T08:01:03;101074.09;;;24.45;74.46
16690;BME280;8458;52.220;9.884;2022-08-25T08:03:29;101073.50;;;24.51;73.07
16690;BME280;8458;52.220;9.884;2022-08-25T08:05:58;101072.38;;;24.65;73.68
16690;BME280;8458;52.220;9.884;2022-08-25T08:08:25;101075.34;;;24.81;72.71
16690;BME280;8458;52.220;9.884;2022-08-25T08:10:53;101066.75;;;24.90;71.66
16690;BME280;8458;52.220;9.884;2022-08-25T08:13:19;101072.63;;;24.97;72.64
16690;BME280;8458;52.220;9.884;2022-08-25T08:15:47;101058.25;;;25.02;72.74
16690;BME280;8458;52.220;9.884;2022-08-25T08:18:14;101071.56;;;25.14;72.61
16690;BME280;8458;52.220;9.884;2022-08-25T08:20:43;101059.63;;;25.20;73.15
16690;BME280;8458;52.220;9.884;2022-08-25T08:23:09;101067.44;;;25.36;72.56
16690;BME280;8458;52.220;9.884;2022-08-25T08:25:36;101059.63;;;25.45;70.43
16690;BME280;8458;52.220;9.884;2022-08-25T08:28:04;101057.47;;;25.54;71.17
16690;BME280;8458;52.220;9.884;2022-08-25T08:30:30;101062.66;;;25.65;70.18
16690;BME280;8458;52.220;9.884;2022-08-25T08:32:57;101056.38;;;25.71;71.27
16690;BME280;8458;52.220;9.884;2022-08-25T08:35:23;101056.22;;;25.80;69.36
16690;BME280;8458;52.220;9.884;2022-08-25T08:37:50;101061.66;;;25.85;70.28
16690;BME280;8458;52.220;9.884;2022-08-25T08:40:18;101055.25;;;25.88;69.81
16690;BME280;8458;52.220;9.884;2022-08-25T08:42:52;101052.25;;;25.97;70.75
16690;BME280;8458;52.220;9.884;2022-08-25T08:45:29;101050.03;;;26.03;69.64
16690;BME280;8458;52.220;9.884;2022-08-25T08:48:16;101047.66;;;26.05;68.43
16690;BME280;8458;52.220;9.884;2022-08-25T08:50:54;101037.94;;;26.06;68.37
16690;BME280;8458;52.220;9.884;2022-08-25T08:53:28;101038.50;;;26.11;69.18
16690;BME280;8458;52.220;9.884;2022-08-25T08:55:59;101029.44;;;26.22;70.16
16690;BME280;8458;52.220;9.884;2022-08-25T08:58:29;101029.00;;;26.36;68.78
16690;BME280;8458;52.220;9.884;2022-08-25T09:00:59;101018.66;;;26.43;68.81
16690;BME280;8458;52.220;9.884;2022-08-25T09:03:32;101030.13;;;26.47;67.75
16690;BME280;8458;52.220;9.884;2022-08-25T09:06:03;101028.28;;;26.55;68.29
16690;BME280;8458;52.220;9.884;2022-08-25T09:08:31;101023.91;;;26.57;67.45
16690;BME280;8458;52.220;9.884;2022-08-25T09:11:02;101028.13;;;26.63;66.79
16690;BME280;8458;52.220;9.884;2022-08-25T09:13:45;101014.81;;;26.68;67.02
16690;BME280;8458;52.220;9.884;2022-08-25T09:16:19;101015.56;;;26.80;67.70
16690;BME280;8458;52.220;9.884;2022-08-25T09:19:18;101010.16;;;26.91;68.01
16690;BME280;8458;52.220;9.884;2022-08-25T09:21:53;101009.00;;;27.12;67.24
16690;BME280;8458;52.220;9.884;2022-08-25T09:24:32;101012.66;;;27.28;67.21
16690;BME280;8458;52.220;9.884;2022-08-25T09:27:11;101009.59;;;27.37;65.41
16690;BME280;8458;52.220;9.884;2022-08-25T09:29:49;101001.44;;;27.35;64.53
16690;BME280;8458;52.220;9.884;2022-08-25T09:32:21;101006.47;;;27.26;64.36
16690;BME280;8458;52.220;9.884;2022-08-25T09:34:49;101003.75;;;27.14;64.58
16690;BME280;8458;52.220;9.884;2022-08-25T09:37:17;101011.56;;;27.17;65.46
16690;BME280;8458;52.220;9.884;2022-08-25T09:39:43;101005.22;;;27.24;66.45
16690;BME280;8458;52.220;9.884;2022-08-25T09:42:10;101004.66;;;27.34;65.37
16690;BME280;8458;52.220;9.884;2022-08-25T09:44:40;101000.19;;;27.33;64.88
16690;BME280;8458;52.220;9.884;2022-08-25T09:47:18;100999.59;;;27.27;62.90
16690;BME280;8458;52.220;9.884;2022-08-25T09:49:50;100990.94;;;27.04;63.89
16690;BME280;8458;52.220;9.884;2022-08-25T09:52:30;100998.94;;;26.98;64.37
16690;BME280;8458;52.220;9.884;2022-08-25T09:55:00;100987.09;;;26.96;63.43
16690;BME280;8458;52.220;9.884;2022-08-25T09:57:33;100986.81;;;27.01;63.18
16690;BME280;8458;52.220;9.884;2022-08-25T10:00:15;100978.63;;;27.16;64.07
16690;BME280;8458;52.220;9.884;2022-08-25T10:02:43;100979.97;;;27.22;63.63
16690;BME280;8458;52.220;9.884;2022-08-25T10:05:23;100985.38;;;27.27;63.44
16690;BME280;8458;52.220;9.884;2022-08-25T10:07:53;100981.78;;;27.30;63.21
16690;BME280;8458;52.220;9.884;2022-08-25T10:10:27;100979.19;;;27.41;63.59
16690;BME280;8458;52.220;9.884;2022-08-25T10:12:55;100979.50;;;27.36;62.20
16690;BME280;8458;52.220;9.884;2022-08-25T10:15:27;100972.09;;;27.31;64.14
16690;BME280;8458;52.220;9.884;2022-08-25T10:17:55;100975.81;;;27.35;64.00
16690;BME280;8458;52.220;9.884;2022-08-25T10:20:25;100966.31;;;27.47;63.58
16690;BME280;8458;52.220;9.884;2022-08-25T10:23:08;100960.47;;;27.60;62.25
16690;BME280;8458;52.220;9.884;2022-08-25T10:25:39;100948.41;;;27.66;62.34
16690;BME280;8458;52.220;9.884;2022-08-25T10:28:11;100950.44;;;27.66;62.96
16690;BME280;8458;52.220;9.884;2022-08-25T10:30:52;100950.66;;;27.77;62.07
16690;BME280;8458;52.220;9.884;2022-08-25T10:33:27;100947.25;;;27.90;61.66
16690;BME280;8458;52.220;9.884;2022-08-25T10:36:03;100940.28;;;27.88;61.06
16690;BME280;8458;52.220;9.884;2022-08-25T10:38:41;100932.53;;;27.88;60.60
16690;BME280;8458;52.220;9.884;2022-08-25T10:41:30;100933.53;;;27.96;60.51
16690;BME280;8458;52.220;9.884;2022-08-25T10:44:07;100923.47;;;28.02;60.06
16690;BME280;8458;52.220;9.884;2022-08-25T10:47:07;100922.13;;;27.96;59.31
16690;BME280;8458;52.220;9.884;2022-08-25T10:49:43;100913.13;;;27.94;59.12
16690;BME280;8458;52.220;9.884;2022-08-25T10:52:15;100906.53;;;27.90;59.66
16690;BME280;8458;52.220;9.884;2022-08-25T10:54:48;100906.53;;;27.90;60.62
16690;BME280;8458;52.220;9.884;2022-08-25T10:57:22;100909.97;;;27.99;60.84
16690;BME280;8458;52.220;9.884;2022-08-25T11:00:03;100901.19;;;28.08;60.51
16690;BME280;8458;52.220;9.884;2022-08-25T11:02:55;100898.09;;;28.17;59.02
16690;BME280;8458;52.220;9.884;2022-08-25T11:05:27;100900.63;;;28.22;60.60
16690;BME280;8458;52.220;9.884;2022-08-25T11:08:04;100883.47;;;28.18;58.05
16690;BME280;8458;52.220;9.884;2022-08-25T11:10:39;100884.28;;;28.19;59.35
16690;BME280;8458;52.220;9.884;2022-08-25T11:13:12;100877.94;;;28.29;61.31
16690;BME280;8458;52.220;9.884;2022-08-25T11:15:46;100873.13;;;28.33;58.70
16690;BME280;8458;52.220;9.884;2022-08-25T11:18:16;100872.69;;;28.31;58.83
16690;BME280;8458;52.220;9.884;2022-08-25T11:20:46;100875.03;;;28.25;59.46
16690;BME280;8458;52.220;9.884;2022-08-25T11:23:21;100867.41;;;28.33;60.17
16690;BME280;8458;52.220;9.884;2022-08-25T11:25:50;100869.19;;;28.41;59.78
16690;BME280;8458;52.220;9.884;2022-08-25T11:28:21;100864.69;;;28.40;57.91
16690;BME280;8458;52.220;9.884;2022-08-25T11:30:52;100856.19;;;28.44;57.65
16690;BME280;8458;52.220;9.884;2022-08-25T11:33:23;100852.28;;;28.56;58.53
16690;BME280;8458;52.220;9.884;2022-08-25T11:35:52;100848.81;;;28.66;57.93
16690;BME280;8458;52.220;9.884;2022-08-25T11:38:35;100851.44;;;28.78;57.44
16690;BME280;8458;52.220;9.884;2022-08-25T11:41:13;100849.06;;;28.84;56.79
16690;BME280;8458;52.220;9.884;2022-08-25T11:43:54;100849.06;;;28.84;56.63
16690;BME280;8458;52.220;9.884;2022-08-25T11:46:40;100841.00;;;28.90;56.36
16690;BME280;8458;52.220;9.884;2022-08-25T11:49:31;100831.81;;;29.07;56.76
16690;BME280;8458;52.220;9.884;2022-08-25T11:52:03;100834.63;;;29.34;54.88
16690;BME280;8458;52.220;9.884;2022-08-25T11:54:36;100842.09;;;29.46;53.25
16690;BME280;8458;52.220;9.884;2022-08-25T11:57:06;100834.72;;;29.41;52.35
16690;BME280;8458;52.220;9.884;2022-08-25T12:00:06;100836.28;;;29.35;54.10
16690;BME280;8458;52.220;9.884;2022-08-25T12:02:39;100829.63;;;29.24;54.87
16690;BME280;8458;52.220;9.884;2022-08-25T12:05:09;100820.06;;;29.12;54.91
16690;BME280;8458;52.220;9.884;2022-08-25T12:08:02;100821.28;;;29.11;54.12
16690;BME280;8458;52.220;9.884;2022-08-25T12:10:56;100815.34;;;29.24;54.66
16690;BME280;8458;52.220;9.884;2022-08-25T12:13:36;100816.56;;;29.23;54.89
16690;BME280;8458;52.220;9.884;2022-08-25T12:16:04;100812.91;;;29.26;54.24
16690;BME280;8458;52.220;9.884;2022-08-25T12:18:43;100813.34;;;29.28;54.36
16690;BME280;8458;52.220;9.884;2022-08-25T12:21:15;100813.44;;;29.35;53.84
16690;BME280;8458;52.220;9.884;2022-08-25T12:24:08;100807.81;;;29.42;53.48
16690;BME280;8458;52.220;9.884;2022-08-25T12:26:44;100812.72;;;29.45;52.64
16690;BME280;8458;52.220;9.884;2022-08-25T12:29:22;100811.94;;;29.48;52.63
16690;BME280;8458;52.220;9.884;2022-08-25T12:32:03;100805.44;;;29.52;53.88
16690;BME280;8458;52.220;9.884;2022-08-25T12:34:44;100786.59;;;29.43;51.76
16690;BME280;8458;52.220;9.884;2022-08-25T12:37:17;100793.03;;;29.33;52.27
16690;BME280;8458;52.220;9.884;2022-08-25T12:39:50;100798.66;;;29.26;53.74
16690;BME280;8458;52.220;9.884;2022-08-25T12:42:27;100790.44;;;29.21;51.64
16690;BME280;8458;52.220;9.884;2022-08-25T12:45:13;100788.03;;;29.26;51.68
16690;BME280;8458;52.220;9.884;2022-08-25T12:47:41;100786.41;;;29.25;52.07
16690;BME280;8458;52.220;9.884;2022-08-25T12:50:34;100790.88;;;29.26;52.84
16690;BME280;8458;52.220;9.884;2022-08-25T12:53:09;100786.41;;;29.25;53.53
16690;BME280;8458;52.220;9.884;2022-08-25T12:55:40;100787.38;;;29.40;52.20
16690;BME280;8458;52.220;9.884;2022-08-25T12:58:10;100787.03;;;29.45;51.99
16690;BME280;8458;52.220;9.884;2022-08-25T13:00:49;100790.69;;;29.42;51.53
16690;BME280;8458;52.220;9.884;2022-08-25T13:03:49;100794.53;;;29.23;50.95
16690;BME280;8458;52.220;9.884;2022-08-25T13:06:41;100781.34;;;29.11;50.20
16690;BME280;8458;52.220;9.884;2022-08-25T13:09:29;100782.13;;;29.08;52.08
16690;BME280;8458;52.220;9.884;2022-08-25T13:12:09;100777.69;;;29.14;52.49
16690;BME280;8458;52.220;9.884;2022-08-25T13:14:42;100770.91;;;29.26;53.55
16690;BME280;8458;52.220;9.884;2022-08-25T13:17:09;100766.16;;;29.38;52.60
16690;BME280;8458;52.220;9.884;2022-08-25T13:19:36;100761.25;;;29.38;51.43